Bookmark and Share
Track history (hours):
 

Moby Baby

Last reported at 2014-Apr-23 14:33 UTC. Time now 2014-Apr-23 15:16 UTC.
Position N 42°56' E 010°33'.

Length 99 m; draft 4.5 m.

Type: Ship. MMSI: 247049900.

NotesDate/timePositionNaut miles runAvg speedWind from/ knotsBaromVisibWave heightAir tempDewpointWater temp
2014-Apr-23 14:33N 42°56' E 010°33'1212.3
2014-Apr-23 13:33N 42°49' E 010°19'7 6.6
2014-Apr-23 12:33N 42°53' E 010°26'6 2.0
2014-Apr-23 09:33N 42°56' E 010°33'13 5.8
2014-Apr-23 07:25N 42°49' E 010°19'1010.1
2014-Apr-23 06:28N 42°54' E 010°30'3 3.1
2014-Apr-23 05:29N 42°56' E 010°33'13 2.6
2014-Apr-23 00:32N 42°49' E 010°19'2 0.3
2014-Apr-22 19:21N 42°49' E 010°22'10 2.4
2014-Apr-22 15:07N 42°55' E 010°33'4 3.8
2014-Apr-22 14:11N 42°54' E 010°29'3 0.1
2014-Apr-20 17:33N 42°53' E 010°25'0 0.2
2014-Apr-20 15:33N 42°53' E 010°25'0 0.1
2014-Apr-20 12:33N 42°53' E 010°25'1 0.3
2014-Apr-20 09:03N 42°53' E 010°26'6 3.3
2014-Apr-20 07:05N 42°49' E 010°20'814.3
2014-Apr-20 06:31N 42°54' E 010°29'1 0.7
2014-Apr-20 05:13N 42°54' E 010°30'  
2014-Apr-17 19:16N 42°51' E 010°22'0 0.1
2014-Apr-17 17:25N 42°51' E 010°22'  
2014-Apr-14 06:32N 42°49' E 010°19'  

Dump ship's entire track history

sailing weather and tide predictions

Moby Baby — ICEM — position and weather